Turks and Caicos Islands Weather

[source: ADDS]
METAR
MBPV 172300Z 1800/1900 10010KT 9999 VCSH SCT015 PROB30 1809/1812 13010KT 9999 SHRA BKN015 MBGT 172300Z 1800/1900 10010KT 9999 VCSH SCT015 PROB30 1809/1812 13010KT 9999 SHRA BKN015 TAF
MBPV 172300Z 1800/1900 10010KT 9999 VCSH SCT015 PROB30 1809/1812 13010KT 9999 SHRA BKN015 =
MBGT 172300Z 1800/1900 10010KT 9999 VCSH SCT015 PROB30 1809/1812 13010KT 9999 SHRA BKN015 =
SR / SS: 10:36 / 22:49 UTC (MBPV 2014-09-17)
E-mail Print PDF
Weather